createdAt,value
2018-09-10T00:00:47.817Z,4.93
2018-09-10T00:03:15.401Z,4.93
2018-09-10T00:05:43.067Z,4.87
2018-09-10T00:08:10.635Z,4.50
2018-09-10T00:10:38.160Z,4.20
2018-09-10T00:13:05.886Z,4.83
2018-09-10T00:15:33.401Z,4.43
2018-09-10T00:18:00.947Z,4.00
2018-09-10T00:20:28.507Z,4.30
2018-09-10T00:22:56.065Z,4.30
2018-09-10T00:25:23.593Z,5.20
2018-09-10T00:27:51.107Z,4.37
2018-09-10T00:30:18.663Z,4.00
2018-09-10T00:32:46.193Z,4.40
2018-09-10T00:35:13.705Z,5.00
2018-09-10T00:37:41.231Z,5.07
2018-09-10T00:40:08.798Z,4.57
2018-09-10T00:42:36.363Z,4.00
2018-09-10T00:45:03.976Z,4.67
2018-09-10T00:47:31.542Z,5.00
2018-09-10T00:49:59.068Z,4.93
2018-09-10T00:52:26.606Z,5.10
2018-09-10T00:54:54.113Z,4.93
2018-09-10T00:57:21.686Z,5.10
2018-09-10T00:59:49.285Z,5.77
2018-09-10T01:02:16.816Z,5.60
2018-09-10T01:04:44.365Z,5.40
2018-09-10T01:07:11.929Z,4.90
2018-09-10T01:09:39.448Z,5.07
2018-09-10T01:12:06.968Z,4.53
2018-09-10T01:14:34.511Z,5.50
2018-09-10T01:17:02.001Z,4.77
2018-09-10T01:19:29.524Z,4.70
2018-09-10T01:21:57.164Z,5.23
2018-09-10T01:24:24.689Z,5.00
2018-09-10T01:26:52.197Z,5.07
2018-09-10T01:29:19.765Z,5.10
2018-09-10T01:31:47.288Z,4.83
2018-09-10T01:34:20.508Z,5.27
2018-09-10T01:36:48.030Z,4.80
2018-09-10T01:39:15.564Z,5.17
2018-09-10T01:41:43.151Z,5.80
2018-09-10T01:44:10.679Z,5.47
2018-09-10T01:46:38.190Z,5.43
2018-09-10T01:49:05.696Z,5.27
2018-09-10T01:51:33.276Z,5.40
2018-09-10T01:54:00.794Z,4.93
2018-09-10T01:56:28.301Z,4.77
2018-09-10T01:58:55.823Z,5.03
2018-09-10T02:01:23.415Z,5.13
2018-09-10T02:03:51.024Z,5.70
2018-09-10T02:06:18.595Z,5.43
2018-09-10T02:08:46.176Z,5.17
2018-09-10T02:11:13.691Z,4.70
2018-09-10T02:13:41.236Z,4.70
2018-09-10T02:16:16.733Z,4.23
2018-09-10T02:18:45.108Z,4.80
2018-09-10T02:21:12.716Z,4.97
2018-09-10T02:23:40.300Z,5.03
2018-09-10T02:26:07.784Z,4.97
2018-09-10T02:28:35.332Z,5.00
2018-09-10T02:31:03.377Z,5.27
2018-09-10T02:33:31.228Z,4.67
2018-09-10T02:35:58.720Z,5.10
2018-09-10T02:38:26.284Z,4.90
2018-09-10T02:40:53.838Z,5.17
2018-09-10T02:43:21.410Z,4.40
2018-09-10T02:45:48.961Z,4.43
2018-09-10T02:48:16.512Z,4.70
2018-09-10T02:50:44.087Z,4.60
2018-09-10T02:53:11.630Z,5.40
2018-09-10T02:55:39.130Z,5.23
2018-09-10T02:58:06.679Z,4.77
2018-09-10T03:00:34.272Z,5.03
2018-09-10T03:03:01.775Z,5.50
2018-09-10T03:05:29.347Z,5.10
2018-09-10T03:07:56.868Z,4.93
2018-09-10T03:10:24.407Z,4.30
2018-09-10T03:12:53.140Z,5.23
2018-09-10T03:15:21.057Z,4.53
2018-09-10T03:17:48.624Z,5.10
2018-09-10T03:20:16.114Z,4.37
2018-09-10T03:22:43.639Z,4.80
2018-09-10T03:25:11.279Z,4.27
2018-09-10T03:27:38.866Z,4.30
2018-09-10T03:30:06.480Z,4.97
2018-09-10T03:32:34.086Z,4.80
2018-09-10T03:35:01.623Z,4.50
2018-09-10T03:37:29.166Z,4.20
2018-09-10T03:39:56.682Z,5.70
2018-09-10T03:42:24.267Z,4.67
2018-09-10T03:44:51.832Z,4.60
2018-09-10T03:47:19.380Z,4.83
2018-09-10T03:49:46.899Z,4.57
2018-09-10T03:52:14.441Z,5.17
2018-09-10T03:54:41.976Z,4.77
2018-09-10T03:57:09.501Z,5.17
2018-09-10T03:59:37.052Z,5.07
2018-09-10T04:02:04.639Z,5.33
2018-09-10T04:04:32.166Z,4.53
2018-09-10T04:06:59.751Z,5.60
2018-09-10T04:09:27.254Z,5.70
2018-09-10T04:11:54.830Z,4.97
2018-09-10T04:14:22.384Z,5.40
2018-09-10T04:16:50.021Z,4.40
2018-09-10T04:19:17.617Z,5.20
2018-09-10T04:21:45.148Z,5.40
2018-09-10T04:24:12.716Z,5.53
2018-09-10T04:26:40.238Z,4.40
2018-09-10T04:29:07.785Z,5.50
2018-09-10T04:31:35.353Z,4.90
2018-09-10T04:34:02.918Z,4.67
2018-09-10T04:36:30.527Z,5.80
2018-09-10T04:38:58.108Z,6.70
2018-09-10T04:41:25.679Z,5.80
2018-09-10T04:43:53.240Z,6.27
2018-09-10T04:46:20.821Z,5.67
2018-09-10T04:48:48.355Z,6.27
2018-09-10T04:51:15.951Z,6.17
2018-09-10T04:53:43.512Z,6.33
2018-09-10T04:56:11.079Z,5.90
2018-09-10T04:58:38.625Z,5.97
2018-09-10T05:01:06.282Z,5.97
2018-09-10T05:03:34.141Z,6.23
2018-09-10T05:06:02.401Z,6.43
2018-09-10T05:08:29.997Z,5.60
2018-09-10T05:10:57.606Z,6.33
2018-09-10T05:13:25.217Z,5.80
2018-09-10T05:15:52.725Z,6.40
2018-09-10T05:18:20.279Z,5.93
2018-09-10T05:20:48.087Z,6.00
2018-09-10T05:23:15.641Z,6.07
2018-09-10T05:25:43.195Z,5.60
2018-09-10T05:28:10.726Z,6.03
2018-09-10T05:30:38.288Z,5.20
2018-09-10T05:33:05.814Z,6.10
2018-09-10T05:35:33.358Z,5.60
2018-09-10T05:38:00.885Z,5.93
2018-09-10T05:40:28.481Z,6.37
2018-09-10T05:42:56.036Z,7.20
2018-09-10T05:45:23.635Z,7.20
2018-09-10T05:47:51.237Z,7.87
2018-09-10T05:50:18.799Z,11.23
2018-09-10T05:52:46.301Z,12.63
2018-09-10T05:55:13.851Z,9.83
2018-09-10T05:57:41.385Z,8.03
2018-09-10T06:00:09.580Z,8.37
2018-09-10T06:02:37.471Z,7.93
2018-09-10T06:05:05.107Z,7.90
2018-09-10T06:07:32.680Z,8.60
2018-09-10T06:10:00.304Z,8.90
2018-09-10T06:12:27.850Z,8.43
2018-09-10T06:14:55.639Z,8.00
2018-09-10T06:17:23.177Z,8.83
2018-09-10T06:19:50.708Z,8.73
2018-09-10T06:22:18.268Z,8.10
2018-09-10T06:24:45.830Z,8.43
2018-09-10T06:27:13.380Z,7.40
2018-09-10T06:29:40.908Z,7.83
2018-09-10T06:32:08.458Z,8.63
2018-09-10T06:34:36.033Z,8.20
2018-09-10T06:37:03.613Z,7.87
2018-09-10T06:39:31.156Z,8.30
2018-09-10T06:41:58.715Z,10.33
2018-09-10T06:44:26.240Z,10.27
2018-09-10T06:46:53.799Z,13.03
2018-09-10T06:49:21.368Z,13.10
2018-09-10T06:51:49.010Z,21.40
2018-09-10T06:54:16.545Z,19.63
2018-09-10T06:56:44.174Z,16.67
2018-09-10T06:59:11.814Z,17.90
2018-09-10T07:01:39.366Z,14.20
2018-09-10T07:04:07.324Z,13.57
2018-09-10T07:06:35.031Z,14.00
2018-09-10T07:09:03.264Z,17.07
2018-09-10T07:11:30.848Z,18.27
2018-09-10T07:13:58.421Z,17.77
2018-09-10T07:16:26.039Z,12.23
2018-09-10T07:18:53.690Z,11.90
2018-09-10T07:21:21.184Z,10.93
2018-09-10T07:23:48.718Z,11.57
2018-09-10T07:26:16.269Z,11.67
2018-09-10T07:28:43.830Z,11.97
2018-09-10T07:31:11.411Z,10.53
2018-09-10T07:33:39.027Z,10.37
2018-09-10T07:36:06.610Z,10.93
2018-09-10T07:38:34.186Z,10.70
2018-09-10T07:41:01.756Z,8.83
2018-09-10T07:43:29.363Z,9.83
2018-09-10T07:45:56.953Z,9.33
2018-09-10T07:48:25.161Z,9.70
2018-09-10T07:50:52.708Z,9.80
2018-09-10T07:53:20.300Z,10.00
2018-09-10T07:55:47.932Z,11.30
2018-09-10T07:58:15.417Z,11.30
2018-09-10T08:00:42.961Z,11.03
2018-09-10T08:03:10.606Z,10.33
2018-09-10T08:05:38.304Z,11.17
2018-09-10T08:08:06.024Z,11.47
2018-09-10T08:10:33.629Z,11.90
2018-09-10T08:13:01.469Z,12.00
2018-09-10T08:15:29.089Z,11.43
2018-09-10T08:17:56.621Z,10.93
2018-09-10T08:20:24.246Z,10.67
2018-09-10T08:22:51.931Z,10.07
2018-09-10T08:25:21.760Z,10.03
2018-09-10T08:27:49.448Z,10.07
2018-09-10T08:30:17.462Z,10.53
2018-09-10T08:32:45.045Z,9.97
2018-09-10T08:35:12.687Z,9.70
2018-09-10T08:37:41.531Z,10.87
2018-09-10T08:40:09.264Z,10.23
2018-09-10T08:42:36.978Z,10.10
2018-09-10T08:45:05.067Z,9.43
2018-09-10T08:47:32.757Z,9.60
2018-09-10T08:50:00.343Z,11.00
2018-09-10T08:52:27.955Z,10.00
2018-09-10T08:54:56.023Z,9.77
2018-09-10T08:57:23.265Z,9.70
2018-09-10T08:59:50.844Z,9.00
2018-09-10T09:02:18.484Z,8.50
2018-09-10T09:04:46.054Z,8.90
2018-09-10T09:07:14.372Z,8.93
2018-09-10T09:09:42.201Z,8.13
2018-09-10T09:12:09.987Z,7.50
2018-09-10T09:14:37.578Z,6.63
2018-09-10T09:17:05.286Z,8.97
2018-09-10T09:19:32.959Z,6.97
2018-09-10T09:22:00.536Z,6.80
2018-09-10T09:24:28.179Z,7.40
2018-09-10T09:26:55.788Z,6.27
2018-09-10T09:29:23.351Z,7.70
2018-09-10T09:31:50.999Z,6.73
2018-09-10T09:34:18.593Z,7.90
2018-09-10T09:36:51.683Z,7.27
2018-09-10T09:39:25.010Z,7.00
2018-09-10T09:41:58.198Z,6.10
2018-09-10T09:44:31.341Z,5.93
2018-09-10T09:46:59.005Z,5.23
2018-09-10T09:49:26.606Z,6.70
2018-09-10T09:51:54.330Z,5.17
2018-09-10T09:54:21.948Z,5.87
2018-09-10T09:56:49.680Z,4.63
2018-09-10T09:59:17.404Z,4.20
2018-09-10T10:01:52.498Z,4.47
2018-09-10T10:04:20.242Z,4.17
2018-09-10T10:06:47.850Z,3.57
2018-09-10T10:09:15.540Z,3.77
2018-09-10T10:11:43.150Z,4.43
2018-09-10T10:14:11.230Z,3.27
2018-09-10T10:16:39.100Z,3.90
2018-09-10T10:19:06.712Z,3.67
2018-09-10T10:21:34.367Z,4.33
2018-09-10T10:24:02.012Z,4.73
2018-09-10T10:26:29.678Z,3.37
2018-09-10T10:28:57.356Z,3.87
2018-09-10T10:31:24.978Z,3.47
2018-09-10T10:33:52.556Z,3.63
2018-09-10T10:36:20.149Z,3.50
2018-09-10T10:38:47.758Z,3.77
2018-09-10T10:41:15.613Z,3.33
2018-09-10T10:43:43.233Z,3.10
2018-09-10T10:46:10.808Z,3.10
2018-09-10T10:48:38.443Z,4.13
2018-09-10T10:51:06.037Z,3.27
2018-09-10T10:53:33.694Z,2.83
2018-09-10T10:56:01.436Z,3.20
2018-09-10T10:58:29.087Z,3.43
2018-09-10T11:00:56.685Z,3.00
2018-09-10T11:03:24.264Z,2.50
2018-09-10T11:05:51.836Z,3.40
2018-09-10T11:08:19.403Z,2.67
2018-09-10T11:10:46.991Z,2.67
2018-09-10T11:13:14.616Z,2.67
2018-09-10T11:15:42.223Z,2.67
2018-09-10T11:18:09.877Z,2.70
2018-09-10T11:20:37.501Z,3.30
2018-09-10T11:23:05.092Z,3.03
2018-09-10T11:25:32.649Z,2.30
2018-09-10T11:28:00.224Z,2.80
2018-09-10T11:30:27.813Z,2.27
2018-09-10T11:32:55.414Z,2.50
2018-09-10T11:35:22.950Z,2.47
2018-09-10T11:37:50.550Z,2.87
2018-09-10T11:40:18.197Z,2.77
2018-09-10T11:42:45.773Z,2.27
2018-09-10T11:45:13.384Z,3.07
2018-09-10T11:47:40.957Z,3.10
2018-09-10T11:50:08.546Z,2.70
2018-09-10T11:52:36.142Z,2.53
2018-09-10T11:55:03.768Z,2.13
2018-09-10T11:57:31.485Z,2.20
2018-09-10T11:59:59.087Z,2.90
2018-09-10T12:02:26.704Z,2.60
2018-09-10T12:04:54.668Z,2.80
2018-09-10T12:07:22.278Z,2.87
2018-09-10T12:09:49.944Z,2.60
2018-09-10T12:12:17.588Z,2.07
2018-09-10T12:14:45.297Z,2.67
2018-09-10T12:17:12.871Z,2.60
2018-09-10T12:19:40.519Z,3.00
2018-09-10T12:22:08.106Z,2.70
2018-09-10T12:24:35.830Z,2.80
2018-09-10T12:27:03.551Z,2.50
2018-09-10T12:29:31.225Z,2.33
2018-09-10T12:31:58.819Z,3.27
2018-09-10T12:34:26.387Z,2.37
2018-09-10T12:36:54.017Z,2.30
2018-09-10T12:39:21.672Z,2.70
2018-09-10T12:41:49.373Z,2.40
2018-09-10T12:44:16.926Z,2.80
2018-09-10T12:46:44.581Z,2.50
2018-09-10T12:49:12.153Z,2.80
2018-09-10T12:51:39.789Z,2.70
2018-09-10T12:54:07.386Z,2.60
2018-09-10T12:56:34.980Z,2.50
2018-09-10T12:59:02.629Z,2.60
2018-09-10T13:01:30.282Z,2.30
2018-09-10T13:03:57.918Z,2.27
2018-09-10T13:06:25.494Z,2.53
2018-09-10T13:08:53.114Z,2.60
2018-09-10T13:11:20.686Z,2.30
2018-09-10T13:13:48.313Z,2.33
2018-09-10T13:16:15.957Z,2.30
2018-09-10T13:18:43.552Z,2.20
2018-09-10T13:21:11.249Z,2.50
2018-09-10T13:23:39.006Z,1.90
2018-09-10T13:26:06.658Z,2.57
2018-09-10T13:28:34.263Z,2.43
2018-09-10T13:31:01.848Z,2.60
2018-09-10T13:33:29.524Z,2.13
2018-09-10T13:35:57.119Z,2.50
2018-09-10T13:38:24.706Z,3.27
2018-09-10T13:40:54.362Z,2.80
2018-09-10T13:43:21.976Z,2.43
2018-09-10T13:45:49.594Z,2.27
2018-09-10T13:48:17.262Z,2.50
2018-09-10T13:50:44.872Z,2.90
2018-09-10T13:53:12.561Z,2.50
2018-09-10T13:55:40.193Z,2.50
2018-09-10T13:58:07.925Z,2.80
2018-09-10T14:00:35.584Z,2.80
2018-09-10T14:03:03.196Z,2.80
2018-09-10T14:05:31.736Z,3.10
2018-09-10T14:07:59.409Z,2.27
2018-09-10T14:10:27.037Z,2.73
2018-09-10T14:12:54.680Z,2.60
2018-09-10T14:15:22.290Z,2.97
2018-09-10T14:17:49.858Z,2.87
2018-09-10T14:20:17.475Z,3.07
2018-09-10T14:22:45.081Z,2.73
2018-09-10T14:25:12.712Z,2.90
2018-09-10T14:27:40.367Z,3.10
2018-09-10T14:30:08.025Z,3.13
2018-09-10T14:32:35.673Z,3.00
2018-09-10T14:35:03.283Z,2.40
2018-09-10T14:37:30.994Z,3.00
2018-09-10T14:39:58.604Z,2.77
2018-09-10T14:42:26.144Z,3.07
2018-09-10T14:44:53.732Z,3.00
2018-09-10T14:47:21.345Z,3.20
2018-09-10T14:49:48.927Z,2.90
2018-09-10T14:52:16.518Z,3.20
2018-09-10T14:54:44.118Z,2.73
2018-09-10T14:57:11.748Z,2.93
2018-09-10T14:59:39.393Z,3.10
2018-09-10T15:02:06.963Z,3.30
2018-09-10T15:04:35.577Z,3.40
2018-09-10T15:07:03.204Z,2.90
2018-09-10T15:09:30.920Z,3.10
2018-09-10T15:11:58.552Z,3.63
2018-09-10T15:14:26.243Z,3.60
2018-09-10T15:16:53.864Z,3.07
2018-09-10T15:19:21.578Z,3.27
2018-09-10T15:21:49.231Z,2.93
2018-09-10T15:24:16.856Z,2.73
2018-09-10T15:26:44.504Z,3.17
2018-09-10T15:29:12.104Z,3.13
2018-09-10T15:31:40.091Z,3.17
2018-09-10T15:34:07.802Z,3.20
2018-09-10T15:36:35.417Z,3.37
2018-09-10T15:39:03.452Z,3.13
2018-09-10T15:41:31.093Z,3.47
2018-09-10T15:43:58.762Z,2.70
2018-09-10T15:46:26.442Z,3.27
2018-09-10T15:48:54.068Z,3.07
2018-09-10T15:51:21.763Z,3.40
2018-09-10T15:53:49.342Z,3.77
2018-09-10T15:56:16.966Z,2.70
2018-09-10T15:58:44.729Z,2.93
2018-09-10T16:01:12.338Z,3.57
2018-09-10T16:03:40.020Z,3.00
2018-09-10T16:06:07.629Z,2.80
2018-09-10T16:08:36.257Z,3.17
2018-09-10T16:11:03.889Z,3.07
2018-09-10T16:13:31.524Z,2.90
2018-09-10T16:15:59.078Z,2.87
2018-09-10T16:18:26.647Z,3.93
2018-09-10T16:20:54.356Z,3.50
2018-09-10T16:23:22.028Z,3.70
2018-09-10T16:25:49.603Z,3.30
2018-09-10T16:28:17.218Z,3.10
2018-09-10T16:30:44.781Z,3.50
2018-09-10T16:33:12.475Z,4.00
2018-09-10T16:35:40.357Z,2.90
2018-09-10T16:38:07.995Z,3.47
2018-09-10T16:40:36.533Z,2.90
2018-09-10T16:43:05.392Z,3.17
2018-09-10T16:45:33.129Z,3.43
2018-09-10T16:48:00.797Z,3.00
2018-09-10T16:50:29.230Z,3.53
2018-09-10T16:52:56.890Z,3.57
2018-09-10T16:55:24.586Z,3.13
2018-09-10T16:57:52.233Z,3.43
2018-09-10T17:00:19.870Z,3.77
2018-09-10T17:02:48.056Z,3.20
2018-09-10T17:05:15.643Z,3.33
2018-09-10T17:07:43.352Z,3.20
2018-09-10T17:10:11.001Z,3.23
2018-09-10T17:12:38.712Z,3.27
2018-09-10T17:15:06.270Z,3.53
2018-09-10T17:17:33.909Z,3.77
2018-09-10T17:20:01.595Z,4.00
2018-09-10T17:22:29.327Z,3.67
2018-09-10T17:24:56.887Z,3.87
2018-09-10T17:27:24.530Z,2.97
2018-09-10T17:29:52.218Z,4.43
2018-09-10T17:32:20.065Z,3.10
2018-09-10T17:34:47.729Z,3.60
2018-09-10T17:37:15.478Z,3.77
2018-09-10T17:39:43.140Z,4.07
2018-09-10T17:42:10.843Z,4.40
2018-09-10T17:44:38.499Z,4.10
2018-09-10T17:47:06.503Z,4.17
2018-09-10T17:49:34.350Z,3.97
2018-09-10T17:52:02.145Z,3.60
2018-09-10T17:54:29.759Z,3.53
2018-09-10T17:56:57.375Z,4.37
2018-09-10T17:59:25.124Z,3.97
2018-09-10T18:01:52.785Z,3.33
2018-09-10T18:04:20.412Z,4.27
2018-09-10T18:06:48.087Z,8.07
2018-09-10T18:09:15.800Z,8.30
2018-09-10T18:11:44.349Z,4.30
2018-09-10T18:14:11.963Z,4.40
2018-09-10T18:16:39.669Z,3.77
2018-09-10T18:19:07.295Z,4.43
2018-09-10T18:21:35.077Z,3.70
2018-09-10T18:24:03.566Z,4.07
2018-09-10T18:26:31.207Z,4.60
2018-09-10T18:28:58.855Z,4.20
2018-09-10T18:31:26.643Z,4.40
2018-09-10T18:33:54.535Z,3.60
2018-09-10T18:36:22.324Z,4.30
2018-09-10T18:38:50.572Z,4.30
2018-09-10T18:41:18.595Z,4.27
2018-09-10T18:43:46.641Z,4.67
2018-09-10T18:46:14.415Z,4.30
2018-09-10T18:48:42.636Z,5.63
2018-09-10T18:51:10.598Z,4.80
2018-09-10T18:53:38.357Z,4.50
2018-09-10T18:56:06.194Z,4.50
2018-09-10T18:58:34.131Z,5.10
2018-09-10T19:01:02.111Z,5.67
2018-09-10T19:03:29.866Z,6.03
2018-09-10T19:05:57.624Z,5.67
2018-09-10T19:08:25.297Z,5.80
2018-09-10T19:10:53.080Z,6.37
2018-09-10T19:13:20.793Z,6.50
2018-09-10T19:15:48.510Z,6.23
2018-09-10T19:18:16.759Z,6.83
2018-09-10T19:20:44.712Z,5.43
2018-09-10T19:23:12.448Z,5.37
2018-09-10T19:25:40.379Z,6.17
2018-09-10T19:28:09.026Z,6.00
2018-09-10T19:30:36.876Z,6.30
2018-09-10T19:33:04.586Z,4.90
2018-09-10T19:35:32.321Z,6.20
2018-09-10T19:37:59.997Z,5.33
2018-09-10T19:40:27.712Z,5.57
2018-09-10T19:42:55.385Z,5.53
2018-09-10T19:45:23.140Z,5.20
2018-09-10T19:47:50.872Z,6.20
2018-09-10T19:50:18.683Z,6.50
2018-09-10T19:52:46.533Z,7.07
2018-09-10T19:55:14.348Z,5.80
2018-09-10T19:57:42.058Z,6.63
2018-09-10T20:00:09.858Z,6.13
2018-09-10T20:02:37.560Z,5.80
2018-09-10T20:05:05.414Z,5.97
2018-09-10T20:07:34.543Z,6.30
2018-09-10T20:10:02.296Z,5.90
2018-09-10T20:12:29.982Z,6.17
2018-09-10T20:14:57.623Z,5.90
2018-09-10T20:17:26.276Z,5.17
2018-09-10T20:19:53.950Z,5.73
2018-09-10T20:22:21.562Z,5.77
2018-09-10T20:24:49.875Z,5.87
2018-09-10T20:27:17.559Z,6.77
2018-09-10T20:29:45.331Z,5.70
2018-09-10T20:32:13.006Z,6.80
2018-09-10T20:34:40.630Z,6.97
2018-09-10T20:37:09.062Z,6.70
2018-09-10T20:39:36.740Z,6.87
2018-09-10T20:42:04.373Z,5.50
2018-09-10T20:44:31.971Z,6.93
2018-09-10T20:46:59.617Z,7.70
2018-09-10T20:49:27.247Z,6.87
2018-09-10T20:51:54.845Z,6.00
2018-09-10T20:54:22.548Z,8.20
2018-09-10T20:56:50.128Z,7.40
2018-09-10T20:59:17.762Z,6.10
2018-09-10T21:01:45.347Z,7.10
2018-09-10T21:04:13.003Z,6.50
2018-09-10T21:06:40.617Z,7.30
2018-09-10T21:09:09.261Z,6.93
2018-09-10T21:11:36.917Z,6.40
2018-09-10T21:14:04.499Z,6.50
2018-09-10T21:16:32.150Z,7.00
2018-09-10T21:18:59.859Z,6.70
2018-09-10T21:21:27.516Z,7.07
2018-09-10T21:23:59.011Z,6.87
2018-09-10T21:26:26.792Z,7.80
2018-09-10T21:28:54.474Z,6.77
2018-09-10T21:31:22.079Z,6.53
2018-09-10T21:33:49.694Z,7.50
2018-09-10T21:36:17.256Z,7.57
2018-09-10T21:38:44.800Z,8.07
2018-09-10T21:41:12.366Z,7.20
2018-09-10T21:43:39.956Z,5.90
2018-09-10T21:46:07.511Z,7.07
2018-09-10T21:48:35.116Z,6.80
2018-09-10T21:51:02.740Z,6.80
2018-09-10T21:53:30.367Z,7.27
2018-09-10T21:55:57.969Z,6.80
2018-09-10T21:58:25.508Z,6.90
2018-09-10T22:00:53.076Z,7.87
2018-09-10T22:03:20.614Z,6.43
2018-09-10T22:05:48.234Z,7.50
2018-09-10T22:08:15.985Z,7.60
2018-09-10T22:10:43.526Z,6.70
2018-09-10T22:13:11.535Z,6.77
2018-09-10T22:15:39.146Z,7.50
2018-09-10T22:18:06.742Z,7.63
2018-09-10T22:20:34.344Z,7.17
2018-09-10T22:23:01.970Z,7.70
2018-09-10T22:25:29.524Z,8.70
2018-09-10T22:27:57.127Z,7.80
2018-09-10T22:30:24.668Z,9.33
2018-09-10T22:32:52.200Z,8.17
2018-09-10T22:35:19.778Z,7.83
2018-09-10T22:37:47.348Z,8.47
2018-09-10T22:40:14.945Z,8.00
2018-09-10T22:42:42.522Z,7.40
2018-09-10T22:45:10.105Z,7.47
2018-09-10T22:47:37.759Z,8.80
2018-09-10T22:50:05.409Z,8.00
2018-09-10T22:52:33.114Z,9.20
2018-09-10T22:55:00.763Z,10.43
2018-09-10T22:57:28.345Z,11.10
2018-09-10T22:59:55.885Z,10.47
2018-09-10T23:02:23.612Z,10.37
2018-09-10T23:04:51.165Z,9.20
2018-09-10T23:07:18.684Z,9.23
2018-09-10T23:09:46.249Z,9.60
2018-09-10T23:12:13.807Z,9.40
2018-09-10T23:14:41.357Z,8.87
2018-09-10T23:17:08.915Z,9.33
2018-09-10T23:19:36.508Z,8.03
2018-09-10T23:22:04.073Z,9.00
2018-09-10T23:24:31.672Z,11.50
2018-09-10T23:26:59.170Z,13.67
2018-09-10T23:29:26.728Z,13.20
2018-09-10T23:31:54.296Z,10.33
2018-09-10T23:34:21.778Z,9.30
2018-09-10T23:36:49.348Z,9.53
2018-09-10T23:39:16.980Z,8.97
2018-09-10T23:41:44.524Z,9.63
2018-09-10T23:44:12.042Z,9.67
2018-09-10T23:46:39.570Z,8.37
2018-09-10T23:49:07.128Z,8.10
2018-09-10T23:51:34.668Z,8.93
2018-09-10T23:54:02.207Z,8.70
2018-09-10T23:56:29.837Z,9.30
2018-09-10T23:58:57.429Z,8.73
